sensor_id;sensor_type;location;lat;lon;timestamp;P1;durP1;ratioP1;P2;durP2;ratioP2
51556;SDS011;38766;53.194;5.532;2023-04-03T00:00:45;3.05;;;1.80;;
51556;SDS011;38766;53.194;5.532;2023-04-03T00:03:10;4.25;;;1.70;;
51556;SDS011;38766;53.194;5.532;2023-04-03T00:05:36;3.33;;;1.73;;
51556;SDS011;38766;53.194;5.532;2023-04-03T00:08:02;3.20;;;1.45;;
51556;SDS011;38766;53.194;5.532;2023-04-03T00:10:29;1.77;;;1.58;;
51556;SDS011;38766;53.194;5.532;2023-04-03T00:12:55;3.00;;;1.73;;
51556;SDS011;38766;53.194;5.532;2023-04-03T00:15:21;3.42;;;1.60;;
51556;SDS011;38766;53.194;5.532;2023-04-03T00:17:46;4.78;;;2.10;;
51556;SDS011;38766;53.194;5.532;2023-04-03T00:20:12;2.83;;;1.95;;
51556;SDS011;38766;53.194;5.532;2023-04-03T00:22:38;3.03;;;1.88;;
51556;SDS011;38766;53.194;5.532;2023-04-03T00:25:04;3.42;;;2.03;;
51556;SDS011;38766;53.194;5.532;2023-04-03T00:27:30;4.88;;;1.92;;
51556;SDS011;38766;53.194;5.532;2023-04-03T00:29:56;4.28;;;1.75;;
51556;SDS011;38766;53.194;5.532;2023-04-03T00:32:21;4.15;;;1.80;;
51556;SDS011;38766;53.194;5.532;2023-04-03T00:34:47;4.75;;;1.88;;
51556;SDS011;38766;53.194;5.532;2023-04-03T00:37:12;3.35;;;2.08;;
51556;SDS011;38766;53.194;5.532;2023-04-03T00:39:38;3.75;;;1.88;;
51556;SDS011;38766;53.194;5.532;2023-04-03T00:42:04;4.28;;;2.05;;
51556;SDS011;38766;53.194;5.532;2023-04-03T00:46:59;2.88;;;1.90;;
51556;SDS011;38766;53.194;5.532;2023-04-03T00:49:25;3.63;;;2.00;;
51556;SDS011;38766;53.194;5.532;2023-04-03T00:51:52;5.25;;;1.90;;
51556;SDS011;38766;53.194;5.532;2023-04-03T00:54:18;2.50;;;1.73;;
51556;SDS011;38766;53.194;5.532;2023-04-03T00:56:44;4.47;;;2.33;;
51556;SDS011;38766;53.194;5.532;2023-04-03T00:59:15;2.53;;;1.73;;
51556;SDS011;38766;53.194;5.532;2023-04-03T01:01:47;4.38;;;2.00;;
51556;SDS011;38766;53.194;5.532;2023-04-03T01:04:30;3.38;;;2.08;;
51556;SDS011;38766;53.194;5.532;2023-04-03T01:06:59;3.08;;;2.05;;
51556;SDS011;38766;53.194;5.532;2023-04-03T01:09:34;2.33;;;1.70;;
51556;SDS011;38766;53.194;5.532;2023-04-03T01:12:34;5.20;;;2.10;;
51556;SDS011;38766;53.194;5.532;2023-04-03T01:14:55;5.53;;;2.03;;
51556;SDS011;38766;53.194;5.532;2023-04-03T01:25:44;4.97;;;1.98;;
51556;SDS011;38766;53.194;5.532;2023-04-03T01:28:14;3.65;;;1.77;;
51556;SDS011;38766;53.194;5.532;2023-04-03T01:30:47;3.97;;;2.05;;
51556;SDS011;38766;53.194;5.532;2023-04-03T01:33:33;2.47;;;1.80;;
51556;SDS011;38766;53.194;5.532;2023-04-03T01:35:59;2.72;;;1.70;;
51556;SDS011;38766;53.194;5.532;2023-04-03T01:38:25;4.28;;;1.90;;
51556;SDS011;38766;53.194;5.532;2023-04-03T01:40:51;7.43;;;2.53;;
51556;SDS011;38766;53.194;5.532;2023-04-03T01:43:16;2.75;;;1.80;;
51556;SDS011;38766;53.194;5.532;2023-04-03T01:45:42;3.95;;;1.80;;
51556;SDS011;38766;53.194;5.532;2023-04-03T01:48:08;2.60;;;1.60;;
51556;SDS011;38766;53.194;5.532;2023-04-03T01:50:34;3.65;;;2.30;;
51556;SDS011;38766;53.194;5.532;2023-04-03T01:52:59;3.08;;;1.67;;
51556;SDS011;38766;53.194;5.532;2023-04-03T01:55:25;4.93;;;2.20;;
51556;SDS011;38766;53.194;5.532;2023-04-03T01:57:51;2.00;;;1.38;;
51556;SDS011;38766;53.194;5.532;2023-04-03T02:00:16;3.92;;;1.98;;
51556;SDS011;38766;53.194;5.532;2023-04-03T02:02:42;2.55;;;1.70;;
51556;SDS011;38766;53.194;5.532;2023-04-03T02:05:08;2.90;;;1.30;;
51556;SDS011;38766;53.194;5.532;2023-04-03T02:07:34;3.20;;;1.50;;
51556;SDS011;38766;53.194;5.532;2023-04-03T02:10:00;6.75;;;1.70;;
51556;SDS011;38766;53.194;5.532;2023-04-03T02:12:25;1.77;;;1.27;;
51556;SDS011;38766;53.194;5.532;2023-04-03T02:14:51;2.90;;;1.83;;
51556;SDS011;38766;53.194;5.532;2023-04-03T02:17:16;2.05;;;1.48;;
51556;SDS011;38766;53.194;5.532;2023-04-03T02:19:42;2.60;;;1.50;;
51556;SDS011;38766;53.194;5.532;2023-04-03T02:22:08;2.38;;;1.50;;
51556;SDS011;38766;53.194;5.532;2023-04-03T02:24:33;2.67;;;1.55;;
51556;SDS011;38766;53.194;5.532;2023-04-03T02:26:59;4.40;;;1.63;;
51556;SDS011;38766;53.194;5.532;2023-04-03T02:29:25;1.63;;;1.35;;
51556;SDS011;38766;53.194;5.532;2023-04-03T02:31:50;2.95;;;1.50;;
51556;SDS011;38766;53.194;5.532;2023-04-03T02:34:16;4.07;;;1.60;;
51556;SDS011;38766;53.194;5.532;2023-04-03T02:36:42;2.97;;;1.75;;
51556;SDS011;38766;53.194;5.532;2023-04-03T02:39:08;4.80;;;1.85;;
51556;SDS011;38766;53.194;5.532;2023-04-03T02:41:34;4.95;;;1.90;;
51556;SDS011;38766;53.194;5.532;2023-04-03T02:44:04;3.70;;;1.40;;
51556;SDS011;38766;53.194;5.532;2023-04-03T02:46:31;1.90;;;1.30;;
51556;SDS011;38766;53.194;5.532;2023-04-03T02:48:57;2.78;;;1.35;;
51556;SDS011;38766;53.194;5.532;2023-04-03T02:51:23;3.63;;;1.40;;
51556;SDS011;38766;53.194;5.532;2023-04-03T02:53:49;3.40;;;1.60;;
51556;SDS011;38766;53.194;5.532;2023-04-03T02:56:15;3.88;;;1.70;;
51556;SDS011;38766;53.194;5.532;2023-04-03T02:58:42;2.72;;;1.88;;
51556;SDS011;38766;53.194;5.532;2023-04-03T03:01:08;4.10;;;1.70;;
51556;SDS011;38766;53.194;5.532;2023-04-03T03:03:34;2.40;;;1.30;;
51556;SDS011;38766;53.194;5.532;2023-04-03T03:06:03;2.72;;;1.50;;
51556;SDS011;38766;53.194;5.532;2023-04-03T03:08:30;1.50;;;1.40;;
51556;SDS011;38766;53.194;5.532;2023-04-03T03:10:56;1.67;;;1.40;;
51556;SDS011;38766;53.194;5.532;2023-04-03T03:13:22;5.85;;;1.77;;
51556;SDS011;38766;53.194;5.532;2023-04-03T03:15:48;4.60;;;1.83;;
51556;SDS011;38766;53.194;5.532;2023-04-03T03:18:13;3.38;;;1.65;;
51556;SDS011;38766;53.194;5.532;2023-04-03T03:20:39;4.32;;;1.83;;
51556;SDS011;38766;53.194;5.532;2023-04-03T03:23:05;4.30;;;1.65;;
51556;SDS011;38766;53.194;5.532;2023-04-03T03:25:30;1.80;;;1.40;;
51556;SDS011;38766;53.194;5.532;2023-04-03T03:27:56;3.58;;;1.75;;
51556;SDS011;38766;53.194;5.532;2023-04-03T03:30:22;3.92;;;1.67;;
51556;SDS011;38766;53.194;5.532;2023-04-03T03:32:47;3.17;;;1.50;;
51556;SDS011;38766;53.194;5.532;2023-04-03T03:35:13;3.78;;;1.58;;
51556;SDS011;38766;53.194;5.532;2023-04-03T03:37:38;3.40;;;1.60;;
51556;SDS011;38766;53.194;5.532;2023-04-03T03:40:04;4.53;;;1.85;;
51556;SDS011;38766;53.194;5.532;2023-04-03T03:42:31;5.32;;;2.10;;
51556;SDS011;38766;53.194;5.532;2023-04-03T03:44:56;3.17;;;1.63;;
51556;SDS011;38766;53.194;5.532;2023-04-03T03:47:22;4.38;;;1.90;;
51556;SDS011;38766;53.194;5.532;2023-04-03T03:49:47;4.07;;;2.13;;
51556;SDS011;38766;53.194;5.532;2023-04-03T03:52:13;1.85;;;1.50;;
51556;SDS011;38766;53.194;5.532;2023-04-03T03:54:39;6.57;;;2.25;;
51556;SDS011;38766;53.194;5.532;2023-04-03T03:57:04;2.35;;;1.60;;
51556;SDS011;38766;53.194;5.532;2023-04-03T03:59:30;4.00;;;1.95;;
51556;SDS011;38766;53.194;5.532;2023-04-03T04:01:56;3.83;;;1.92;;
51556;SDS011;38766;53.194;5.532;2023-04-03T04:04:22;3.83;;;1.75;;
51556;SDS011;38766;53.194;5.532;2023-04-03T04:06:47;4.60;;;1.73;;
51556;SDS011;38766;53.194;5.532;2023-04-03T04:09:13;3.80;;;1.60;;
51556;SDS011;38766;53.194;5.532;2023-04-03T04:11:39;5.60;;;2.00;;
51556;SDS011;38766;53.194;5.532;2023-04-03T04:14:06;5.40;;;1.60;;
51556;SDS011;38766;53.194;5.532;2023-04-03T04:16:32;5.30;;;2.28;;
51556;SDS011;38766;53.194;5.532;2023-04-03T04:18:57;4.78;;;1.73;;
51556;SDS011;38766;53.194;5.532;2023-04-03T04:21:23;2.13;;;1.80;;
51556;SDS011;38766;53.194;5.532;2023-04-03T04:23:49;3.85;;;1.90;;
51556;SDS011;38766;53.194;5.532;2023-04-03T04:26:15;3.50;;;2.28;;
51556;SDS011;38766;53.194;5.532;2023-04-03T04:28:40;4.72;;;2.20;;
51556;SDS011;38766;53.194;5.532;2023-04-03T04:31:06;3.97;;;1.92;;
51556;SDS011;38766;53.194;5.532;2023-04-03T04:33:31;3.80;;;2.00;;
51556;SDS011;38766;53.194;5.532;2023-04-03T04:35:57;2.42;;;1.80;;
51556;SDS011;38766;53.194;5.532;2023-04-03T04:38:23;4.80;;;1.88;;
51556;SDS011;38766;53.194;5.532;2023-04-03T04:40:50;5.57;;;2.22;;
51556;SDS011;38766;53.194;5.532;2023-04-03T04:43:16;4.45;;;2.13;;
51556;SDS011;38766;53.194;5.532;2023-04-03T04:45:41;1.77;;;1.67;;
51556;SDS011;38766;53.194;5.532;2023-04-03T04:48:07;10.05;;;2.63;;
51556;SDS011;38766;53.194;5.532;2023-04-03T04:50:33;5.03;;;2.00;;
51556;SDS011;38766;53.194;5.532;2023-04-03T04:52:58;6.30;;;2.40;;
51556;SDS011;38766;53.194;5.532;2023-04-03T04:55:24;6.93;;;2.65;;
51556;SDS011;38766;53.194;5.532;2023-04-03T04:57:50;8.00;;;2.20;;
51556;SDS011;38766;53.194;5.532;2023-04-03T05:00:15;2.92;;;1.85;;
51556;SDS011;38766;53.194;5.532;2023-04-03T05:02:41;4.70;;;1.90;;
51556;SDS011;38766;53.194;5.532;2023-04-03T05:05:07;4.72;;;1.88;;
51556;SDS011;38766;53.194;5.532;2023-04-03T05:07:33;6.32;;;1.98;;
51556;SDS011;38766;53.194;5.532;2023-04-03T05:10:00;4.78;;;2.20;;
51556;SDS011;38766;53.194;5.532;2023-04-03T05:12:28;5.07;;;2.10;;
51556;SDS011;38766;53.194;5.532;2023-04-03T05:14:54;5.90;;;2.17;;
51556;SDS011;38766;53.194;5.532;2023-04-03T05:17:19;4.80;;;2.22;;
51556;SDS011;38766;53.194;5.532;2023-04-03T05:19:45;2.60;;;1.80;;
51556;SDS011;38766;53.194;5.532;2023-04-03T05:22:11;4.13;;;2.58;;
51556;SDS011;38766;53.194;5.532;2023-04-03T05:24:36;7.22;;;3.80;;
51556;SDS011;38766;53.194;5.532;2023-04-03T05:27:02;4.40;;;1.80;;
51556;SDS011;38766;53.194;5.532;2023-04-03T05:29:28;4.68;;;2.10;;
51556;SDS011;38766;53.194;5.532;2023-04-03T05:31:53;6.75;;;2.17;;
51556;SDS011;38766;53.194;5.532;2023-04-03T05:34:19;7.13;;;2.33;;
51556;SDS011;38766;53.194;5.532;2023-04-03T05:36:45;10.57;;;2.67;;
51556;SDS011;38766;53.194;5.532;2023-04-03T05:39:10;5.78;;;2.28;;
51556;SDS011;38766;53.194;5.532;2023-04-03T05:41:36;4.72;;;2.22;;
51556;SDS011;38766;53.194;5.532;2023-04-03T05:44:02;7.90;;;2.88;;
51556;SDS011;38766;53.194;5.532;2023-04-03T05:46:28;3.50;;;1.98;;
51556;SDS011;38766;53.194;5.532;2023-04-03T05:48:53;6.68;;;2.30;;
51556;SDS011;38766;53.194;5.532;2023-04-03T05:51:23;6.80;;;2.13;;
51556;SDS011;38766;53.194;5.532;2023-04-03T05:53:55;7.60;;;2.35;;
51556;SDS011;38766;53.194;5.532;2023-04-03T05:56:26;7.43;;;2.20;;
51556;SDS011;38766;53.194;5.532;2023-04-03T05:58:51;9.50;;;2.90;;
51556;SDS011;38766;53.194;5.532;2023-04-03T06:01:17;7.57;;;2.55;;
51556;SDS011;38766;53.194;5.532;2023-04-03T06:03:43;3.58;;;1.90;;
51556;SDS011;38766;53.194;5.532;2023-04-03T06:06:11;8.18;;;2.58;;
51556;SDS011;38766;53.194;5.532;2023-04-03T06:08:39;6.57;;;2.45;;
51556;SDS011;38766;53.194;5.532;2023-04-03T06:11:05;9.40;;;2.70;;
51556;SDS011;38766;53.194;5.532;2023-04-03T06:13:30;7.85;;;3.05;;
51556;SDS011;38766;53.194;5.532;2023-04-03T06:15:56;6.13;;;2.28;;
51556;SDS011;38766;53.194;5.532;2023-04-03T06:18:23;7.75;;;2.55;;
51556;SDS011;38766;53.194;5.532;2023-04-03T06:20:49;6.97;;;2.63;;
51556;SDS011;38766;53.194;5.532;2023-04-03T06:23:14;4.75;;;2.33;;
51556;SDS011;38766;53.194;5.532;2023-04-03T06:25:40;6.75;;;2.63;;
51556;SDS011;38766;53.194;5.532;2023-04-03T06:28:08;6.07;;;2.63;;
51556;SDS011;38766;53.194;5.532;2023-04-03T06:30:35;7.55;;;2.63;;
51556;SDS011;38766;53.194;5.532;2023-04-03T06:33:01;4.43;;;2.53;;
51556;SDS011;38766;53.194;5.532;2023-04-03T06:35:27;6.45;;;2.38;;
51556;SDS011;38766;53.194;5.532;2023-04-03T06:37:55;9.25;;;3.15;;
51556;SDS011;38766;53.194;5.532;2023-04-03T06:40:22;4.93;;;2.67;;
51556;SDS011;38766;53.194;5.532;2023-04-03T06:42:49;6.75;;;2.63;;
51556;SDS011;38766;53.194;5.532;2023-04-03T06:45:14;13.27;;;2.60;;
51556;SDS011;38766;53.194;5.532;2023-04-03T06:47:41;6.30;;;2.70;;
51556;SDS011;38766;53.194;5.532;2023-04-03T06:50:06;5.85;;;2.60;;
51556;SDS011;38766;53.194;5.532;2023-04-03T06:52:34;6.28;;;2.20;;
51556;SDS011;38766;53.194;5.532;2023-04-03T06:55:00;8.00;;;2.80;;
51556;SDS011;38766;53.194;5.532;2023-04-03T06:57:25;7.00;;;2.60;;
51556;SDS011;38766;53.194;5.532;2023-04-03T06:59:52;8.73;;;2.90;;
51556;SDS011;38766;53.194;5.532;2023-04-03T07:02:18;6.38;;;2.92;;
51556;SDS011;38766;53.194;5.532;2023-04-03T07:04:43;6.38;;;2.80;;
51556;SDS011;38766;53.194;5.532;2023-04-03T07:07:09;4.65;;;2.55;;
51556;SDS011;38766;53.194;5.532;2023-04-03T07:09:35;5.00;;;2.88;;
51556;SDS011;38766;53.194;5.532;2023-04-03T07:12:01;8.93;;;2.58;;
51556;SDS011;38766;53.194;5.532;2023-04-03T07:14:27;6.88;;;2.58;;
51556;SDS011;38766;53.194;5.532;2023-04-03T07:16:53;4.03;;;2.10;;
51556;SDS011;38766;53.194;5.532;2023-04-03T07:19:19;6.13;;;2.13;;
51556;SDS011;38766;53.194;5.532;2023-04-03T07:21:44;6.57;;;2.58;;
51556;SDS011;38766;53.194;5.532;2023-04-03T07:24:11;6.53;;;2.58;;
51556;SDS011;38766;53.194;5.532;2023-04-03T07:26:36;6.60;;;2.20;;
51556;SDS011;38766;53.194;5.532;2023-04-03T07:29:02;7.10;;;2.40;;
51556;SDS011;38766;53.194;5.532;2023-04-03T07:31:27;5.32;;;2.00;;
51556;SDS011;38766;53.194;5.532;2023-04-03T07:33:53;10.13;;;2.60;;
51556;SDS011;38766;53.194;5.532;2023-04-03T07:36:20;6.47;;;2.13;;
51556;SDS011;38766;53.194;5.532;2023-04-03T07:38:46;6.00;;;2.10;;
51556;SDS011;38766;53.194;5.532;2023-04-03T07:41:17;4.78;;;2.58;;
51556;SDS011;38766;53.194;5.532;2023-04-03T07:43:46;5.32;;;2.15;;
51556;SDS011;38766;53.194;5.532;2023-04-03T07:46:12;5.65;;;2.35;;
51556;SDS011;38766;53.194;5.532;2023-04-03T07:48:38;5.53;;;1.80;;
51556;SDS011;38766;53.194;5.532;2023-04-03T07:51:04;4.78;;;1.92;;
51556;SDS011;38766;53.194;5.532;2023-04-03T07:53:30;5.95;;;1.90;;
51556;SDS011;38766;53.194;5.532;2023-04-03T07:55:57;3.80;;;1.90;;
51556;SDS011;38766;53.194;5.532;2023-04-03T07:58:24;3.85;;;2.15;;
51556;SDS011;38766;53.194;5.532;2023-04-03T08:00:50;5.53;;;2.28;;
51556;SDS011;38766;53.194;5.532;2023-04-03T08:03:17;3.20;;;2.17;;
51556;SDS011;38766;53.194;5.532;2023-04-03T08:05:46;4.78;;;2.40;;
51556;SDS011;38766;53.194;5.532;2023-04-03T08:08:14;4.80;;;2.20;;
51556;SDS011;38766;53.194;5.532;2023-04-03T08:10:42;5.78;;;2.42;;
51556;SDS011;38766;53.194;5.532;2023-04-03T08:13:08;8.00;;;2.30;;
51556;SDS011;38766;53.194;5.532;2023-04-03T08:15:34;4.57;;;2.20;;
51556;SDS011;38766;53.194;5.532;2023-04-03T08:18:00;4.90;;;2.13;;
51556;SDS011;38766;53.194;5.532;2023-04-03T08:20:26;4.93;;;2.22;;
51556;SDS011;38766;53.194;5.532;2023-04-03T08:22:53;6.15;;;2.40;;
51556;SDS011;38766;53.194;5.532;2023-04-03T08:25:19;4.05;;;2.00;;
51556;SDS011;38766;53.194;5.532;2023-04-03T08:27:45;4.07;;;2.42;;
51556;SDS011;38766;53.194;5.532;2023-04-03T08:30:11;3.05;;;1.85;;
51556;SDS011;38766;53.194;5.532;2023-04-03T08:32:37;4.30;;;2.10;;
51556;SDS011;38766;53.194;5.532;2023-04-03T08:35:03;4.85;;;2.30;;
51556;SDS011;38766;53.194;5.532;2023-04-03T08:37:30;3.28;;;1.90;;
51556;SDS011;38766;53.194;5.532;2023-04-03T08:39:56;4.40;;;1.98;;
51556;SDS011;38766;53.194;5.532;2023-04-03T08:42:29;5.13;;;2.08;;
51556;SDS011;38766;53.194;5.532;2023-04-03T08:45:13;3.50;;;2.15;;
51556;SDS011;38766;53.194;5.532;2023-04-03T08:48:06;5.05;;;2.25;;
51556;SDS011;38766;53.194;5.532;2023-04-03T08:50:48;4.93;;;2.08;;
51556;SDS011;38766;53.194;5.532;2023-04-03T08:53:19;4.57;;;2.30;;
51556;SDS011;38766;53.194;5.532;2023-04-03T08:55:51;4.18;;;1.88;;
51556;SDS011;38766;53.194;5.532;2023-04-03T08:58:26;3.03;;;2.28;;
51556;SDS011;38766;53.194;5.532;2023-04-03T09:03:28;3.28;;;1.70;;
51556;SDS011;38766;53.194;5.532;2023-04-03T09:08:25;4.45;;;1.55;;
51556;SDS011;38766;53.194;5.532;2023-04-03T09:16:53;4.78;;;1.90;;
51556;SDS011;38766;53.194;5.532;2023-04-03T09:21:43;3.75;;;1.73;;
51556;SDS011;38766;53.194;5.532;2023-04-03T09:24:10;3.30;;;1.80;;
51556;SDS011;38766;53.194;5.532;2023-04-03T09:26:42;3.08;;;2.10;;
51556;SDS011;38766;53.194;5.532;2023-04-03T09:29:25;3.35;;;1.60;;
51556;SDS011;38766;53.194;5.532;2023-04-03T09:32:01;2.67;;;1.48;;
51556;SDS011;38766;53.194;5.532;2023-04-03T09:34:36;2.28;;;1.48;;
51556;SDS011;38766;53.194;5.532;2023-04-03T09:37:03;4.00;;;1.77;;
51556;SDS011;38766;53.194;5.532;2023-04-03T09:39:54;3.17;;;1.52;;
51556;SDS011;38766;53.194;5.532;2023-04-03T09:42:24;2.10;;;1.42;;
51556;SDS011;38766;53.194;5.532;2023-04-03T09:44:55;1.88;;;1.40;;
51556;SDS011;38766;53.194;5.532;2023-04-03T09:47:35;4.55;;;1.45;;
51556;SDS011;38766;53.194;5.532;2023-04-03T09:50:17;3.13;;;1.60;;
51556;SDS011;38766;53.194;5.532;2023-04-03T09:52:45;3.28;;;1.35;;
51556;SDS011;38766;53.194;5.532;2023-04-03T09:55:20;2.92;;;1.20;;
51556;SDS011;38766;53.194;5.532;2023-04-03T09:57:55;2.20;;;1.48;;
51556;SDS011;38766;53.194;5.532;2023-04-03T10:00:33;3.47;;;1.63;;
51556;SDS011;38766;53.194;5.532;2023-04-03T10:03:01;2.72;;;1.23;;
51556;SDS011;38766;53.194;5.532;2023-04-03T10:10:39;1.92;;;1.30;;
51556;SDS011;38766;53.194;5.532;2023-04-03T10:13:17;2.92;;;1.38;;
51556;SDS011;38766;53.194;5.532;2023-04-03T10:15:55;3.38;;;1.40;;
51556;SDS011;38766;53.194;5.532;2023-04-03T10:21:15;3.03;;;1.20;;
51556;SDS011;38766;53.194;5.532;2023-04-03T10:34:45;1.17;;;0.90;;
51556;SDS011;38766;53.194;5.532;2023-04-03T10:42:25;2.03;;;1.17;;
51556;SDS011;38766;53.194;5.532;2023-04-03T10:53:19;2.75;;;1.42;;
51556;SDS011;38766;53.194;5.532;2023-04-03T10:56:15;2.60;;;1.10;;
51556;SDS011;38766;53.194;5.532;2023-04-03T10:58:53;2.13;;;1.10;;
51556;SDS011;38766;53.194;5.532;2023-04-03T11:01:33;1.85;;;1.38;;
51556;SDS011;38766;53.194;5.532;2023-04-03T11:04:04;1.73;;;0.93;;
51556;SDS011;38766;53.194;5.532;2023-04-03T11:06:45;2.40;;;1.30;;
51556;SDS011;38766;53.194;5.532;2023-04-03T11:12:06;2.80;;;1.10;;
51556;SDS011;38766;53.194;5.532;2023-04-03T11:14:38;1.33;;;1.00;;
51556;SDS011;38766;53.194;5.532;2023-04-03T11:22:23;1.80;;;1.23;;
51556;SDS011;38766;53.194;5.532;2023-04-03T11:24:57;1.30;;;0.93;;
51556;SDS011;38766;53.194;5.532;2023-04-03T11:27:33;1.38;;;0.95;;
51556;SDS011;38766;53.194;5.532;2023-04-03T11:30:06;1.98;;;1.27;;
51556;SDS011;38766;53.194;5.532;2023-04-03T11:33:24;2.80;;;0.95;;
51556;SDS011;38766;53.194;5.532;2023-04-03T11:35:45;2.85;;;1.35;;
51556;SDS011;38766;53.194;5.532;2023-04-03T11:38:21;2.35;;;1.00;;
51556;SDS011;38766;53.194;5.532;2023-04-03T11:40:54;1.75;;;1.20;;
51556;SDS011;38766;53.194;5.532;2023-04-03T11:43:23;2.22;;;1.10;;
51556;SDS011;38766;53.194;5.532;2023-04-03T11:45:52;1.65;;;1.27;;
51556;SDS011;38766;53.194;5.532;2023-04-03T11:50:53;2.35;;;1.40;;
51556;SDS011;38766;53.194;5.532;2023-04-03T11:58:31;3.50;;;1.13;;
51556;SDS011;38766;53.194;5.532;2023-04-03T12:01:08;1.85;;;1.10;;
51556;SDS011;38766;53.194;5.532;2023-04-03T12:13:34;3.10;;;1.10;;
51556;SDS011;38766;53.194;5.532;2023-04-03T12:16:26;2.50;;;1.30;;
51556;SDS011;38766;53.194;5.532;2023-04-03T12:21:21;3.47;;;1.30;;
51556;SDS011;38766;53.194;5.532;2023-04-03T12:27:01;1.20;;;0.88;;
51556;SDS011;38766;53.194;5.532;2023-04-03T12:29:47;3.35;;;1.42;;
51556;SDS011;38766;53.194;5.532;2023-04-03T12:35:27;3.17;;;1.50;;
51556;SDS011;38766;53.194;5.532;2023-04-03T12:46:38;1.10;;;1.00;;
51556;SDS011;38766;53.194;5.532;2023-04-03T12:53:11;1.55;;;1.05;;
51556;SDS011;38766;53.194;5.532;2023-04-03T12:55:19;2.45;;;0.80;;
51556;SDS011;38766;53.194;5.532;2023-04-03T12:57:46;1.55;;;1.20;;
51556;SDS011;38766;53.194;5.532;2023-04-03T13:00:27;1.83;;;0.90;;
51556;SDS011;38766;53.194;5.532;2023-04-03T13:02:58;2.40;;;1.25;;
51556;SDS011;38766;53.194;5.532;2023-04-03T13:05:26;1.25;;;1.15;;
51556;SDS011;38766;53.194;5.532;2023-04-03T13:08:00;2.47;;;1.00;;
51556;SDS011;38766;53.194;5.532;2023-04-03T13:10:28;2.65;;;1.20;;
51556;SDS011;38766;53.194;5.532;2023-04-03T13:13:08;1.23;;;1.00;;
51556;SDS011;38766;53.194;5.532;2023-04-03T13:15:42;0.90;;;0.90;;
51556;SDS011;38766;53.194;5.532;2023-04-03T13:18:28;2.55;;;1.15;;
51556;SDS011;38766;53.194;5.532;2023-04-03T13:21:00;2.67;;;1.00;;
51556;SDS011;38766;53.194;5.532;2023-04-03T13:23:28;2.33;;;1.33;;
51556;SDS011;38766;53.194;5.532;2023-04-03T13:25:56;2.60;;;1.15;;
51556;SDS011;38766;53.194;5.532;2023-04-03T13:28:26;4.00;;;2.03;;
51556;SDS011;38766;53.194;5.532;2023-04-03T13:33:31;3.33;;;1.30;;
51556;SDS011;38766;53.194;5.532;2023-04-03T13:38:31;3.33;;;1.48;;
51556;SDS011;38766;53.194;5.532;2023-04-03T13:41:01;2.42;;;0.95;;
51556;SDS011;38766;53.194;5.532;2023-04-03T13:43:46;2.20;;;1.30;;
51556;SDS011;38766;53.194;5.532;2023-04-03T13:48:48;2.05;;;1.20;;
51556;SDS011;38766;53.194;5.532;2023-04-03T14:04:13;1.77;;;1.38;;
51556;SDS011;38766;53.194;5.532;2023-04-03T14:07:03;2.03;;;1.40;;
51556;SDS011;38766;53.194;5.532;2023-04-03T14:09:29;4.28;;;1.45;;
51556;SDS011;38766;53.194;5.532;2023-04-03T14:11:57;4.70;;;1.20;;
51556;SDS011;38766;53.194;5.532;2023-04-03T14:14:37;3.53;;;1.30;;
51556;SDS011;38766;53.194;5.532;2023-04-03T14:17:09;2.13;;;1.40;;
51556;SDS011;38766;53.194;5.532;2023-04-03T14:19:44;1.73;;;1.20;;
51556;SDS011;38766;53.194;5.532;2023-04-03T14:22:17;5.30;;;1.50;;
51556;SDS011;38766;53.194;5.532;2023-04-03T14:24:47;2.15;;;1.40;;
51556;SDS011;38766;53.194;5.532;2023-04-03T14:29:45;2.88;;;1.52;;
51556;SDS011;38766;53.194;5.532;2023-04-03T14:32:13;2.88;;;1.63;;
51556;SDS011;38766;53.194;5.532;2023-04-03T14:34:41;3.58;;;1.50;;
51556;SDS011;38766;53.194;5.532;2023-04-03T14:37:13;2.20;;;1.65;;
51556;SDS011;38766;53.194;5.532;2023-04-03T14:39:41;1.90;;;1.30;;
51556;SDS011;38766;53.194;5.532;2023-04-03T14:42:11;3.10;;;1.45;;
51556;SDS011;38766;53.194;5.532;2023-04-03T14:44:42;4.60;;;1.70;;
51556;SDS011;38766;53.194;5.532;2023-04-03T14:47:15;3.08;;;1.20;;
51556;SDS011;38766;53.194;5.532;2023-04-03T14:49:44;2.05;;;1.33;;
51556;SDS011;38766;53.194;5.532;2023-04-03T14:52:22;1.65;;;1.25;;
51556;SDS011;38766;53.194;5.532;2023-04-03T14:54:51;2.72;;;1.35;;
51556;SDS011;38766;53.194;5.532;2023-04-03T14:57:17;2.70;;;1.30;;
51556;SDS011;38766;53.194;5.532;2023-04-03T14:59:44;3.97;;;1.40;;
51556;SDS011;38766;53.194;5.532;2023-04-03T15:02:16;1.58;;;1.45;;
51556;SDS011;38766;53.194;5.532;2023-04-03T15:04:54;2.90;;;1.48;;
51556;SDS011;38766;53.194;5.532;2023-04-03T15:07:21;2.78;;;1.30;;
51556;SDS011;38766;53.194;5.532;2023-04-03T15:09:49;1.65;;;1.35;;
51556;SDS011;38766;53.194;5.532;2023-04-03T15:12:15;1.30;;;1.20;;
51556;SDS011;38766;53.194;5.532;2023-04-03T15:14:41;3.42;;;1.60;;
51556;SDS011;38766;53.194;5.532;2023-04-03T15:17:08;1.73;;;1.25;;
51556;SDS011;38766;53.194;5.532;2023-04-03T15:19:41;1.75;;;1.10;;
51556;SDS011;38766;53.194;5.532;2023-04-03T15:22:17;1.88;;;1.30;;
51556;SDS011;38766;53.194;5.532;2023-04-03T15:24:44;3.17;;;1.42;;
51556;SDS011;38766;53.194;5.532;2023-04-03T15:27:11;3.10;;;1.50;;
51556;SDS011;38766;53.194;5.532;2023-04-03T15:29:38;2.10;;;1.33;;
51556;SDS011;38766;53.194;5.532;2023-04-03T15:32:05;3.20;;;1.60;;
51556;SDS011;38766;53.194;5.532;2023-04-03T15:34:31;2.42;;;1.35;;
51556;SDS011;38766;53.194;5.532;2023-04-03T15:36:57;3.25;;;1.70;;
51556;SDS011;38766;53.194;5.532;2023-04-03T15:39:24;4.40;;;1.90;;
51556;SDS011;38766;53.194;5.532;2023-04-03T15:41:50;2.38;;;1.80;;
51556;SDS011;38766;53.194;5.532;2023-04-03T15:44:17;2.40;;;1.85;;
51556;SDS011;38766;53.194;5.532;2023-04-03T15:46:43;2.70;;;1.80;;
51556;SDS011;38766;53.194;5.532;2023-04-03T15:49:10;2.55;;;1.73;;
51556;SDS011;38766;53.194;5.532;2023-04-03T15:51:37;2.75;;;1.50;;
51556;SDS011;38766;53.194;5.532;2023-04-03T15:54:03;5.25;;;2.30;;
51556;SDS011;38766;53.194;5.532;2023-04-03T15:56:29;4.00;;;1.88;;
51556;SDS011;38766;53.194;5.532;2023-04-03T15:58:54;2.58;;;1.70;;
51556;SDS011;38766;53.194;5.532;2023-04-03T16:01:20;3.45;;;1.60;;
51556;SDS011;38766;53.194;5.532;2023-04-03T16:03:46;3.20;;;1.75;;
51556;SDS011;38766;53.194;5.532;2023-04-03T16:06:13;4.13;;;1.83;;
51556;SDS011;38766;53.194;5.532;2023-04-03T16:08:40;4.63;;;1.63;;
51556;SDS011;38766;53.194;5.532;2023-04-03T16:11:06;4.25;;;1.92;;
51556;SDS011;38766;53.194;5.532;2023-04-03T16:13:33;3.58;;;1.70;;
51556;SDS011;38766;53.194;5.532;2023-04-03T16:15:59;2.95;;;1.88;;
51556;SDS011;38766;53.194;5.532;2023-04-03T16:18:27;2.20;;;1.42;;
51556;SDS011;38766;53.194;5.532;2023-04-03T16:20:53;2.30;;;1.45;;
51556;SDS011;38766;53.194;5.532;2023-04-03T16:23:19;3.25;;;1.50;;
51556;SDS011;38766;53.194;5.532;2023-04-03T16:25:45;3.63;;;1.70;;
51556;SDS011;38766;53.194;5.532;2023-04-03T16:28:15;3.17;;;1.30;;
51556;SDS011;38766;53.194;5.532;2023-04-03T16:30:43;4.25;;;1.20;;
51556;SDS011;38766;53.194;5.532;2023-04-03T16:33:13;3.40;;;1.20;;
51556;SDS011;38766;53.194;5.532;2023-04-03T16:35:39;2.88;;;1.40;;
51556;SDS011;38766;53.194;5.532;2023-04-03T16:38:07;2.97;;;1.55;;
51556;SDS011;38766;53.194;5.532;2023-04-03T16:40:33;3.58;;;1.33;;
51556;SDS011;38766;53.194;5.532;2023-04-03T16:43:00;3.13;;;1.55;;
51556;SDS011;38766;53.194;5.532;2023-04-03T16:45:27;2.10;;;1.30;;
51556;SDS011;38766;53.194;5.532;2023-04-03T16:47:53;3.40;;;2.20;;
51556;SDS011;38766;53.194;5.532;2023-04-03T16:50:19;2.65;;;1.52;;
51556;SDS011;38766;53.194;5.532;2023-04-03T16:52:45;2.10;;;1.08;;
51556;SDS011;38766;53.194;5.532;2023-04-03T16:55:11;2.60;;;0.88;;
51556;SDS011;38766;53.194;5.532;2023-04-03T16:57:37;1.50;;;1.13;;
51556;SDS011;38766;53.194;5.532;2023-04-03T17:00:03;1.10;;;0.93;;
51556;SDS011;38766;53.194;5.532;2023-04-03T17:02:30;2.75;;;1.27;;